createdAt,value
2019-04-14T00:00:27.833Z,6.40
2019-04-14T00:05:34.033Z,6.50
2019-04-14T00:10:37.884Z,9.00
2019-04-14T00:15:45.743Z,6.00
2019-04-14T00:20:49.037Z,5.80
2019-04-14T00:25:54.366Z,9.80
2019-04-14T00:30:59.850Z,5.00
2019-04-14T00:36:11.545Z,6.00
2019-04-14T00:41:41.414Z,5.75
2019-04-14T00:46:43.410Z,7.60
2019-04-14T00:51:48.527Z,5.50
2019-04-14T00:56:52.660Z,3.60
2019-04-14T01:01:56.984Z,6.75
2019-04-14T01:07:01.980Z,7.00
2019-04-14T01:12:06.462Z,5.00
2019-04-14T01:17:11.278Z,4.20
2019-04-14T01:22:16.268Z,5.00
2019-04-14T01:27:21.108Z,5.60
2019-04-14T01:32:26.127Z,5.40
2019-04-14T01:37:31.163Z,6.80
2019-04-14T01:42:35.559Z,6.60
2019-04-14T01:47:40.000Z,5.50
2019-04-14T01:53:05.841Z,8.00
2019-04-14T01:58:16.430Z,3.75
2019-04-14T02:03:21.719Z,5.00
2019-04-14T02:08:26.319Z,5.25
2019-04-14T02:13:31.117Z,4.00
2019-04-14T02:18:36.200Z,6.00
2019-04-14T02:23:41.142Z,5.00
2019-04-14T02:28:46.159Z,5.00
2019-04-14T02:39:36.448Z,5.00
2019-04-14T02:44:32.120Z,4.75
2019-04-14T02:49:38.608Z,5.50
2019-04-14T02:54:51.912Z,5.00
2019-04-14T02:59:49.864Z,3.40
2019-04-14T03:04:50.785Z,5.00
2019-04-14T03:10:13.021Z,3.75
2019-04-14T03:15:01.426Z,5.50
2019-04-14T03:20:20.552Z,5.75
2019-04-14T03:25:49.488Z,5.75
2019-04-14T03:36:44.134Z,7.00
2019-04-14T03:41:25.936Z,5.00
2019-04-14T03:46:36.447Z,6.25
2019-04-14T03:51:40.500Z,5.00
2019-04-14T03:56:46.694Z,3.00
2019-04-14T04:01:52.118Z,6.00
2019-04-14T04:06:57.487Z,3.60
2019-04-14T04:12:01.945Z,3.75
2019-04-14T04:17:25.447Z,3.80
2019-04-14T04:22:58.505Z,5.60
2019-04-14T04:28:27.834Z,6.00
2019-04-14T04:33:39.747Z,5.60
2019-04-14T04:38:51.080Z,4.25
2019-04-14T04:43:56.041Z,4.50
2019-04-14T04:49:10.885Z,4.00
2019-04-14T04:54:06.133Z,3.25
2019-04-14T04:59:10.188Z,4.75
2019-04-14T05:04:15.329Z,5.00
2019-04-14T05:09:29.563Z,3.80
2019-04-14T05:14:41.995Z,3.00
2019-04-14T05:19:46.132Z,3.75
2019-04-14T05:24:51.327Z,4.00
2019-04-14T05:29:55.869Z,2.40
2019-04-14T05:35:00.876Z,4.00
2019-04-14T05:40:05.905Z,4.00
2019-04-14T05:45:11.180Z,2.00
2019-04-14T05:50:15.869Z,3.00
2019-04-14T05:55:20.215Z,3.00
2019-04-14T06:00:25.561Z,3.60
2019-04-14T06:05:29.862Z,4.25
2019-04-14T06:10:34.607Z,2.40
2019-04-14T06:15:38.654Z,3.00
2019-04-14T06:20:42.687Z,4.60
2019-04-14T06:25:46.713Z,3.25
2019-04-14T06:31:19.126Z,2.50
2019-04-14T06:36:47.942Z,2.00
2019-04-14T06:41:51.977Z,3.80
2019-04-14T06:46:56.007Z,2.00
2019-04-14T06:52:00.108Z,2.75
2019-04-14T06:57:04.384Z,3.80
2019-04-14T07:02:08.784Z,8.00
2019-04-14T07:07:12.865Z,15.00
2019-04-14T07:12:17.103Z,8.25
2019-04-14T07:17:21.154Z,9.25
2019-04-14T07:22:25.172Z,9.00
2019-04-14T07:27:29.189Z,10.00
2019-04-14T07:32:57.921Z,9.00
2019-04-14T07:38:20.922Z,8.60
2019-04-14T07:43:39.489Z,9.00
2019-04-14T07:48:50.522Z,7.00
2019-04-14T07:53:58.627Z,6.00
2019-04-14T07:59:37.340Z,8.40
2019-04-14T08:04:46.391Z,7.60
2019-04-14T08:09:50.716Z,7.00
2019-04-14T08:14:54.739Z,9.00
2019-04-14T08:19:59.059Z,7.25
2019-04-14T08:25:03.260Z,7.00
2019-04-14T08:30:08.300Z,9.60
2019-04-14T08:35:12.544Z,10.20
2019-04-14T08:40:16.679Z,7.50
2019-04-14T08:45:32.115Z,6.00
2019-04-14T08:50:44.375Z,6.75
2019-04-14T08:56:01.440Z,8.75
2019-04-14T09:01:15.712Z,5.50
2019-04-14T09:06:33.735Z,5.40
2019-04-14T09:11:42.392Z,5.25
2019-04-14T09:16:46.575Z,6.20
2019-04-14T09:21:50.613Z,5.00
2019-04-14T09:26:54.637Z,7.25
2019-04-14T09:31:59.127Z,5.00
2019-04-14T09:37:03.253Z,5.00
2019-04-14T09:42:07.492Z,5.60
2019-04-14T09:47:11.522Z,5.25
2019-04-14T09:52:15.710Z,4.40
2019-04-14T09:57:19.772Z,4.50
2019-04-14T10:02:23.883Z,6.25
2019-04-14T10:07:27.936Z,6.00
2019-04-14T10:12:32.219Z,6.00
2019-04-14T10:17:36.324Z,6.80
2019-04-14T10:22:40.457Z,4.40
2019-04-14T10:27:44.520Z,7.75
2019-04-14T10:32:48.652Z,6.50
2019-04-14T10:37:52.803Z,7.50
2019-04-14T10:42:56.965Z,33.75
2019-04-14T10:48:01.124Z,40.25
2019-04-14T10:53:05.435Z,33.75
2019-04-14T10:58:09.599Z,28.20
2019-04-14T11:03:13.807Z,28.75
2019-04-14T11:08:17.976Z,24.25
2019-04-14T11:13:22.027Z,25.50
2019-04-14T11:18:26.177Z,22.75
2019-04-14T11:23:30.277Z,24.20
2019-04-14T11:28:34.347Z,20.00
2019-04-14T11:33:56.291Z,20.60
2019-04-14T11:39:06.705Z,17.80
2019-04-14T11:44:10.853Z,18.75
2019-04-14T11:49:15.033Z,18.25
2019-04-14T11:54:19.145Z,14.50
2019-04-14T11:59:32.861Z,13.25
2019-04-14T12:05:07.993Z,16.00
2019-04-14T12:10:14.797Z,15.00
2019-04-14T12:15:18.906Z,13.60
2019-04-14T12:20:22.954Z,14.40
2019-04-14T12:25:27.088Z,12.40
2019-04-14T12:30:31.327Z,10.20
2019-04-14T12:35:35.397Z,14.00
2019-04-14T12:40:40.237Z,11.75
2019-04-14T12:46:06.164Z,12.40
2019-04-14T12:51:14.256Z,12.40
2019-04-14T12:56:21.586Z,13.40
2019-04-14T13:01:27.146Z,14.20
2019-04-14T13:06:31.328Z,16.40
2019-04-14T13:11:35.345Z,15.40
2019-04-14T13:16:39.566Z,13.00
2019-04-14T13:21:43.660Z,16.25
2019-04-14T13:26:47.890Z,11.75
2019-04-14T13:31:51.926Z,15.50
2019-04-14T13:36:55.965Z,14.25
2019-04-14T13:42:00.158Z,14.00
2019-04-14T13:47:04.376Z,13.25
2019-04-14T13:52:08.435Z,12.20
2019-04-14T13:57:12.574Z,12.40
2019-04-14T14:02:16.850Z,14.50
2019-04-14T14:07:20.962Z,13.50
2019-04-14T14:12:33.480Z,13.00
2019-04-14T14:17:43.490Z,13.20
2019-04-14T14:23:05.501Z,13.50
2019-04-14T14:28:09.785Z,12.80
2019-04-14T14:33:14.009Z,11.50
2019-04-14T14:38:18.110Z,8.25
2019-04-14T14:43:22.181Z,11.25
2019-04-14T14:48:32.521Z,10.00
2019-04-14T14:53:36.656Z,13.75
2019-04-14T14:58:40.728Z,10.75
2019-04-14T15:03:44.867Z,14.60
2019-04-14T15:08:48.895Z,11.50
2019-04-14T15:13:52.960Z,10.00
2019-04-14T15:18:57.175Z,13.00
2019-04-14T15:24:01.304Z,13.25
2019-04-14T15:29:05.592Z,13.00
2019-04-14T15:34:10.759Z,11.50
2019-04-14T15:39:15.071Z,11.50
2019-04-14T15:44:19.122Z,11.75
2019-04-14T15:49:23.243Z,11.50
2019-04-14T15:54:27.446Z,10.80
2019-04-14T15:59:56.765Z,12.75
2019-04-14T16:05:09.247Z,11.75
2019-04-14T16:10:21.728Z,11.75
2019-04-14T16:15:40.523Z,8.75
2019-04-14T16:20:45.026Z,8.60
2019-04-14T16:26:04.048Z,9.50
2019-04-14T16:31:43.178Z,10.20
2019-04-14T16:36:47.783Z,8.60
2019-04-14T16:41:51.871Z,10.50
2019-04-14T16:46:56.036Z,8.50
2019-04-14T16:52:02.820Z,8.20
2019-04-14T16:57:24.783Z,9.00
2019-04-14T17:02:29.116Z,10.00
2019-04-14T17:07:33.159Z,9.20
2019-04-14T17:12:37.411Z,10.20
2019-04-14T17:18:04.727Z,6.00
2019-04-14T17:23:26.319Z,7.50
2019-04-14T17:28:53.540Z,6.00
2019-04-14T17:34:06.567Z,9.00
2019-04-14T17:39:26.942Z,12.40
2019-04-14T17:44:35.249Z,7.75
2019-04-14T17:50:04.261Z,7.75
2019-04-14T17:55:27.531Z,8.00
2019-04-14T18:00:47.049Z,10.40
2019-04-14T18:05:55.026Z,11.00
2019-04-14T18:11:04.783Z,7.20
2019-04-14T18:16:25.594Z,7.00
2019-04-14T18:21:29.808Z,8.00
2019-04-14T18:26:34.325Z,6.50
2019-04-14T18:32:15.585Z,8.25
2019-04-14T18:37:24.942Z,8.75
2019-04-14T18:42:36.775Z,7.00
2019-04-14T18:47:57.986Z,10.00
2019-04-14T18:53:11.816Z,6.75
2019-04-14T18:58:34.655Z,7.00
2019-04-14T19:03:38.759Z,7.40
2019-04-14T19:08:43.030Z,8.50
2019-04-14T19:13:47.659Z,6.00
2019-04-14T19:18:55.317Z,6.50
2019-04-14T19:23:59.450Z,9.20
2019-04-14T19:29:06.476Z,6.20
2019-04-14T19:34:10.677Z,5.20
2019-04-14T19:39:14.895Z,5.80
2019-04-14T19:44:18.997Z,9.75
2019-04-14T19:49:23.038Z,8.50
2019-04-14T19:54:27.234Z,6.00
2019-04-14T19:59:31.333Z,8.00
2019-04-14T20:04:35.437Z,6.25
2019-04-14T20:09:39.477Z,5.75
2019-04-14T20:14:43.487Z,5.00
2019-04-14T20:19:59.324Z,7.60
2019-04-14T20:25:33.897Z,4.50
2019-04-14T20:30:48.729Z,5.00
2019-04-14T20:35:52.808Z,6.50
2019-04-14T20:40:56.851Z,5.00
2019-04-14T20:46:00.911Z,5.75
2019-04-14T20:51:05.076Z,6.00
2019-04-14T20:56:09.224Z,5.00
2019-04-14T21:01:13.994Z,4.00
2019-04-14T21:06:32.705Z,5.80
2019-04-14T21:11:50.304Z,5.20
2019-04-14T21:16:59.373Z,7.80
2019-04-14T21:22:18.526Z,7.00
2019-04-14T21:27:31.510Z,8.00
2019-04-14T21:32:57.543Z,5.00
2019-04-14T21:38:07.068Z,4.50
2019-04-14T21:43:11.301Z,5.40
2019-04-14T21:48:15.554Z,4.60
2019-04-14T21:53:19.701Z,4.50
2019-04-14T21:58:45.513Z,6.80
2019-04-14T22:04:04.350Z,4.20
2019-04-14T22:09:15.349Z,6.40
2019-04-14T22:14:19.652Z,4.00
2019-04-14T22:19:23.906Z,4.00
2019-04-14T22:24:28.060Z,5.50
2019-04-14T22:29:32.400Z,5.50
2019-04-14T22:34:36.781Z,5.00
2019-04-14T22:39:41.027Z,3.50
2019-04-14T22:45:52.460Z,4.50
2019-04-14T22:50:56.509Z,5.75
2019-04-14T22:56:00.774Z,4.00
2019-04-14T23:01:12.715Z,4.00
2019-04-14T23:06:36.472Z,3.25
2019-04-14T23:11:47.955Z,5.00
2019-04-14T23:17:09.893Z,3.75
2019-04-14T23:22:21.403Z,5.40
2019-04-14T23:27:25.475Z,5.20
2019-04-14T23:32:29.606Z,5.20
2019-04-14T23:37:33.794Z,4.50
2019-04-14T23:42:37.909Z,3.50
2019-04-14T23:47:42.292Z,6.00
2019-04-14T23:52:46.458Z,5.00
2019-04-14T23:57:50.646Z,4.00
